Time;durP1;ratioP1;P1;durP2;ratioP2;P2;SDS_P1;SDS_P2;PMS_P1;PMS_P2;Temp;Humidity;BMP_temperature;BMP_pressure;BME280_temperature;BME280_humidity;BME280_pressure;Samples;Min_cycle;Max_cycle;Signal;HPM_P1;HPM_P2
2023/04/28 00:01:53;;;;;;;2.65;1.45;;;14.90;61.80;;;;;;10412878;28;20881;-53
2023/04/28 00:06:54;;;;;;;3.38;1.67;;;14.90;61.90;;;;;;10412499;28;20136;-51
2023/04/28 00:11:55;;;;;;;2.20;1.70;;;14.90;61.80;;;;;;10411109;28;20030;-53
2023/04/28 00:16:57;;;;;;;3.60;1.50;;;14.80;61.80;;;;;;10412171;28;20469;-53
2023/04/28 00:21:58;;;;;;;3.13;1.58;;;14.90;61.80;;;;;;10410526;28;20132;-51
2023/04/28 00:26:58;;;;;;;2.53;1.50;;;14.90;61.80;;;;;;10412048;28;20036;-51
2023/04/28 00:31:59;;;;;;;3.08;1.77;;;14.80;62.40;;;;;;10412780;28;20723;-51
2023/04/28 00:37:00;;;;;;;2.05;1.35;;;14.80;61.70;;;;;;10411633;28;20053;-54
2023/04/28 00:42:01;;;;;;;2.58;1.75;;;14.80;61.70;;;;;;10409926;28;20080;-53
2023/04/28 00:47:01;;;;;;;1.42;1.17;;;14.80;61.70;;;;;;10409895;28;20087;-54
2023/04/28 00:52:05;;;;;;;1.77;1.30;;;14.80;61.70;;;;;;10409585;28;20060;-53
2023/04/28 00:57:07;;;;;;;2.38;1.48;;;14.80;61.70;;;;;;10411331;28;20097;-51
2023/04/28 01:02:08;;;;;;;2.25;1.38;;;14.80;61.70;;;;;;10408844;28;20045;-55
2023/04/28 01:07:08;;;;;;;2.58;1.50;;;14.80;61.70;;;;;;10409018;28;20043;-54
2023/04/28 01:12:09;;;;;;;2.28;1.45;;;14.80;61.70;;;;;;10410147;28;20020;-54
2023/04/28 01:17:11;;;;;;;2.50;1.48;;;14.80;61.70;;;;;;10408548;28;20060;-54
2023/04/28 01:22:14;;;;;;;1.92;1.30;;;14.80;61.70;;;;;;10408539;28;20044;-55
2023/04/28 01:27:15;;;;;;;1.75;1.40;;;14.80;61.70;;;;;;10409210;28;20087;-54
2023/04/28 01:32:16;;;;;;;3.13;1.67;;;14.80;61.80;;;;;;10410513;28;20364;-50
2023/04/28 01:37:16;;;;;;;1.92;1.27;;;14.80;61.80;;;;;;10407703;28;20025;-52
2023/04/28 01:42:17;;;;;;;2.47;1.38;;;14.80;61.80;;;;;;10407573;28;20105;-54
2023/04/28 01:47:18;;;;;;;1.67;1.30;;;14.80;61.80;;;;;;10407797;28;20602;-54
2023/04/28 01:52:21;;;;;;;3.40;1.40;;;14.80;61.90;;;;;;10408487;28;20095;-55
2023/04/28 01:57:22;;;;;;;2.38;1.60;;;14.80;61.90;;;;;;10408395;28;20029;-54
2023/04/28 02:02:22;;;;;;;1.95;1.23;;;14.80;61.90;;;;;;10408418;28;20477;-50
2023/04/28 02:07:23;;;;;;;2.75;1.40;;;14.70;61.90;;;;;;10407810;28;20125;-51
2023/04/28 02:12:24;;;;;;;2.25;1.60;;;14.70;61.90;;;;;;10407207;28;21435;-51
2023/04/28 02:17:24;;;;;;;1.88;1.42;;;14.70;61.80;;;;;;10407468;28;20064;-53
2023/04/28 02:22:25;;;;;;;2.08;1.20;;;14.70;61.90;;;;;;10407044;28;20048;-52
2023/04/28 02:27:26;;;;;;;1.83;1.48;;;14.70;61.80;;;;;;10407133;28;20030;-51
2023/04/28 02:32:26;;;;;;;3.00;1.63;;;14.70;61.90;;;;;;10407477;28;20104;-54
2023/04/28 02:37:27;;;;;;;1.63;1.20;;;14.70;61.90;;;;;;10407362;28;20472;-55
2023/04/28 02:42:28;;;;;;;1.92;1.15;;;14.70;61.90;;;;;;10406647;28;20061;-54
2023/04/28 02:47:28;;;;;;;1.77;1.25;;;14.70;61.90;;;;;;10406380;28;20060;-52
2023/04/28 02:52:29;;;;;;;1.75;1.40;;;14.70;61.90;;;;;;10406030;28;20101;-54
2023/04/28 02:57:30;;;;;;;2.15;1.40;;;14.70;61.80;;;;;;10406505;28;20473;-53
2023/04/28 03:02:30;;;;;;;2.35;1.50;;;14.70;61.90;;;;;;10405839;28;20786;-51
2023/04/28 03:07:31;;;;;;;1.75;1.10;;;14.70;62.00;;;;;;10374806;28;20140;-51
2023/04/28 03:12:32;;;;;;;1.50;1.02;;;14.70;61.90;;;;;;10405567;28;20025;-50
2023/04/28 03:17:32;;;;;;;3.08;1.88;;;14.70;62.10;;;;;;10405282;28;20128;-50
2023/04/28 03:22:34;;;;;;;2.60;1.63;;;14.90;61.50;;;;;;10404276;28;20022;-55
2023/04/28 03:27:35;;;;;;;3.72;1.88;;;15.30;60.30;;;;;;10405183;28;20499;-55
2023/04/28 03:32:35;;;;;;;2.13;1.58;;;15.70;59.10;;;;;;10407015;28;20021;-53
2023/04/28 03:37:36;;;;;;;1.98;1.00;;;16.00;58.30;;;;;;10403794;28;20053;-53
2023/04/28 03:42:37;;;;;;;2.67;1.10;;;16.20;57.60;;;;;;10404936;28;20049;-52
2023/04/28 03:47:37;;;;;;;2.10;1.20;;;16.50;57.00;;;;;;10404589;28;20067;-53
2023/04/28 03:52:38;;;;;;;1.92;1.27;;;16.80;56.40;;;;;;10404656;28;20427;-52
2023/04/28 03:57:39;;;;;;;2.30;1.20;;;16.90;56.00;;;;;;10404199;28;20071;-54
2023/04/28 04:02:40;;;;;;;1.92;1.30;;;17.00;55.90;;;;;;10403120;28;20013;-53
2023/04/28 04:07:40;;;;;;;2.33;1.02;;;17.00;56.00;;;;;;10403072;28;20191;-54
2023/04/28 04:12:41;;;;;;;1.90;1.42;;;17.00;56.20;;;;;;10404350;28;20049;-49
2023/04/28 04:17:42;;;;;;;2.20;1.92;;;16.90;56.50;;;;;;10402091;28;20356;-54
2023/04/28 04:22:43;;;;;;;1.70;1.13;;;16.70;56.90;;;;;;10403715;28;20032;-51
2023/04/28 04:27:44;;;;;;;2.78;1.38;;;16.60;57.40;;;;;;10401961;28;20119;-55
2023/04/28 04:32:44;;;;;;;1.17;0.93;;;16.50;57.80;;;;;;10399128;28;20012;-53
2023/04/28 04:37:45;;;;;;;1.92;1.20;;;16.50;57.80;;;;;;10404278;28;20104;-49
2023/04/28 04:42:46;;;;;;;1.77;1.20;;;16.40;58.10;;;;;;10410822;28;20056;-50
2023/04/28 04:47:47;;;;;;;2.03;1.20;;;16.40;58.20;;;;;;10411432;28;20437;-51
2023/04/28 04:52:48;;;;;;;2.33;1.10;;;16.40;58.20;;;;;;10411057;28;20416;-52
2023/04/28 04:57:48;;;;;;;1.77;1.00;;;16.40;58.40;;;;;;10411061;28;20112;-53
2023/04/28 05:02:49;;;;;;;2.35;1.92;;;16.40;58.40;;;;;;10398615;28;20052;-49
2023/04/28 05:07:50;;;;;;;4.22;1.40;;;16.40;58.50;;;;;;10401800;28;20109;-53
2023/04/28 05:12:50;;;;;;;4.20;2.15;;;16.40;58.20;;;;;;10408980;28;20022;-51
2023/04/28 05:17:51;;;;;;;2.72;1.65;;;16.50;59.50;;;;;;10409745;28;20056;-51
2023/04/28 05:22:52;;;;;;;2.25;1.30;;;16.60;59.80;;;;;;10408449;28;20029;-55
2023/04/28 05:27:52;;;;;;;3.10;1.48;;;16.50;59.60;;;;;;10401727;28;20125;-54
2023/04/28 05:32:53;;;;;;;3.00;2.17;;;16.40;60.60;;;;;;10411335;28;20029;-53
2023/04/28 05:37:54;;;;;;;2.55;1.60;;;16.10;60.50;;;;;;10402224;28;20060;-52
2023/04/28 05:42:55;;;;;;;8.98;2.15;;;16.10;60.40;;;;;;10400219;28;20075;-56
2023/04/28 05:47:55;;;;;;;3.08;1.83;;;16.10;60.40;;;;;;10405985;28;20116;-55
2023/04/28 05:52:56;;;;;;;2.85;1.65;;;16.20;60.50;;;;;;10408169;28;20022;-53
2023/04/28 05:57:58;;;;;;;5.10;2.08;;;16.20;60.20;;;;;;10405488;28;20394;-50
2023/04/28 06:02:59;;;;;;;3.47;2.20;;;16.20;60.00;;;;;;10404596;28;20133;-53
2023/04/28 06:08:00;;;;;;;3.45;1.80;;;16.20;60.00;;;;;;10407396;28;20128;-53
2023/04/28 06:13:03;;;;;;;5.05;1.73;;;16.10;60.20;;;;;;10405679;28;20010;-51
2023/04/28 06:18:08;;;;;;;7.30;2.05;;;16.00;60.40;;;;;;10404444;28;20025;-51
2023/04/28 06:23:09;;;;;;;3.05;1.77;;;16.10;60.30;;;;;;10404756;28;20017;-53
2023/04/28 06:28:12;;;;;;;4.35;2.10;;;16.10;60.20;;;;;;10392799;28;20041;-50
2023/04/28 06:33:12;;;;;;;4.00;1.98;;;16.00;60.40;;;;;;10407726;28;20520;-52
2023/04/28 06:38:13;;;;;;;4.88;2.30;;;16.10;60.10;;;;;;10406262;28;20079;-50
2023/04/28 06:43:14;;;;;;;5.20;2.40;;;16.20;60.00;;;;;;10405274;28;20112;-50
2023/04/28 06:48:14;;;;;;;2.40;1.67;;;16.10;60.10;;;;;;10404736;28;20065;-51
2023/04/28 06:53:15;;;;;;;3.35;1.55;;;16.10;60.20;;;;;;10405017;28;20025;-51
2023/04/28 06:58:16;;;;;;;2.97;2.50;;;16.20;60.00;;;;;;10404735;28;20354;-54
2023/04/28 07:03:16;;;;;;;5.00;2.42;;;16.30;59.80;;;;;;10404429;28;20512;-51
2023/04/28 07:08:17;;;;;;;3.78;2.05;;;16.20;60.00;;;;;;10403062;28;20120;-50
2023/04/28 07:13:18;;;;;;;3.22;1.80;;;16.20;60.30;;;;;;10384526;28;20038;-52
2023/04/28 07:18:18;;;;;;;2.78;1.77;;;16.10;60.50;;;;;;10394558;28;20182;-51
2023/04/28 07:23:19;;;;;;;3.33;2.05;;;16.00;61.40;;;;;;10399524;28;20017;-55
2023/04/28 07:28:20;;;;;;;3.25;1.90;;;15.90;61.10;;;;;;10390396;28;20855;-51
2023/04/28 07:33:21;;;;;;;3.65;1.85;;;15.80;61.50;;;;;;10403832;28;20043;-55
2023/04/28 07:38:21;;;;;;;3.05;1.92;;;15.70;61.70;;;;;;10403615;28;20104;-52
2023/04/28 07:43:22;;;;;;;3.03;1.48;;;15.70;61.60;;;;;;10403480;28;20029;-49
2023/04/28 07:48:23;;;;;;;3.67;2.15;;;15.70;61.70;;;;;;10403548;28;20431;-55
2023/04/28 07:53:24;;;;;;;3.05;1.50;;;15.70;62.30;;;;;;10403218;28;20010;-49
2023/04/28 07:58:25;;;;;;;3.47;2.22;;;15.80;61.60;;;;;;10402046;28;20018;-55
2023/04/28 08:03:25;;;;;;;4.32;2.38;;;15.80;61.40;;;;;;10386531;28;20383;-52
2023/04/28 08:08:26;;;;;;;5.70;2.65;;;15.80;61.50;;;;;;10406740;28;20037;-52
2023/04/28 08:13:27;;;;;;;3.55;2.90;;;15.80;61.60;;;;;;10403466;28;20357;-50
2023/04/28 08:18:28;;;;;;;2.53;2.00;;;15.80;61.70;;;;;;10412203;28;20026;-49
2023/04/28 08:23:30;;;;;;;3.08;2.55;;;15.80;61.70;;;;;;10411456;28;20662;-52
2023/04/28 08:28:32;;;;;;;3.45;1.92;;;15.90;61.50;;;;;;10399057;28;20041;-55
2023/04/28 08:33:33;;;;;;;3.67;2.05;;;15.90;61.60;;;;;;10412502;28;20045;-52
2023/04/28 08:38:34;;;;;;;3.10;2.28;;;15.90;61.60;;;;;;10411519;28;20028;-53
2023/04/28 08:43:35;;;;;;;3.33;2.20;;;15.80;61.70;;;;;;10409753;28;20108;-51
2023/04/28 08:48:43;;;;;;;3.83;2.20;;;15.80;61.90;;;;;;10409209;28;20116;-54
2023/04/28 08:53:52;;;;;;;3.40;2.35;;;15.80;61.70;;;;;;10410640;28;20029;-54
2023/04/28 08:58:54;;;;;;;2.67;2.00;;;15.90;61.60;;;;;;10408012;28;20091;-53
2023/04/28 09:03:55;;;;;;;2.80;1.98;;;15.90;61.60;;;;;;10406897;28;20125;-54
2023/04/28 09:09:16;;;;;;;2.67;2.00;;;15.90;61.90;;;;;;10390385;28;20033;-53
2023/04/28 09:14:17;;;;;;;2.83;1.90;;;15.80;61.90;;;;;;10406996;28;20018;-52
2023/04/28 09:19:18;;;;;;;4.35;2.47;;;15.80;61.90;;;;;;10407106;28;20025;-50
2023/04/28 09:24:45;;;;;;;3.50;2.40;;;15.90;61.70;;;;;;10403027;28;20389;-54
2023/04/28 09:29:53;;;;;;;2.60;2.00;;;15.90;61.80;;;;;;10405203;28;20125;-54
2023/04/28 09:34:57;;;;;;;3.13;1.90;;;15.80;61.80;;;;;;10408594;28;20550;-55
2023/04/28 09:40:06;;;;;;;2.78;2.08;;;15.80;62.00;;;;;;10408964;28;20057;-53
2023/04/28 09:45:12;;;;;;;2.87;1.93;;;15.80;62.00;;;;;;10408166;28;20018;-53
2023/04/28 09:50:15;;;;;;;2.42;1.85;;;15.80;61.90;;;;;;10408817;28;20032;-53
2023/04/28 09:55:16;;;;;;;3.33;2.20;;;15.90;61.70;;;;;;10408375;28;20027;-55
2023/04/28 10:00:19;;;;;;;2.95;1.90;;;15.90;61.80;;;;;;10407453;28;20342;-53
2023/04/28 10:05:21;;;;;;;3.63;2.17;;;15.80;61.90;;;;;;10405129;28;20128;-54
2023/04/28 10:10:24;;;;;;;4.00;2.20;;;15.80;61.90;;;;;;10405327;28;20221;-53
2023/04/28 10:15:24;;;;;;;3.22;2.50;;;15.90;61.80;;;;;;10404370;28;20033;-54
2023/04/28 10:20:28;;;;;;;4.65;2.47;;;15.90;61.80;;;;;;10407658;28;20022;-55
2023/04/28 10:25:32;;;;;;;3.30;2.05;;;15.90;62.20;;;;;;10407462;28;20022;-55
2023/04/28 10:30:34;;;;;;;5.32;2.00;;;16.00;62.20;;;;;;10406525;28;20029;-55
2023/04/28 10:35:39;;;;;;;4.60;1.92;;;16.00;62.50;;;;;;10403941;28;20034;-54
2023/04/28 10:40:42;;;;;;;3.45;2.20;;;16.10;62.50;;;;;;10404845;28;20408;-55
2023/04/28 10:45:51;;;;;;;3.05;2.03;;;16.10;62.60;;;;;;10389648;28;20385;-54
2023/04/28 10:51:08;;;;;;;3.92;1.95;;;16.00;62.50;;;;;;10403793;28;20048;-50
2023/04/28 10:56:21;;;;;;;4.30;2.03;;;16.00;62.50;;;;;;10410624;28;20021;-54
2023/04/28 11:01:23;;;;;;;4.07;2.60;;;15.90;62.60;;;;;;10410163;28;20029;-54
2023/04/28 11:06:30;;;;;;;2.47;1.80;;;15.90;62.90;;;;;;10397497;28;20070;-53
2023/04/28 11:11:35;;;;;;;2.33;1.80;;;15.90;63.60;;;;;;10403690;28;20049;-54
2023/04/28 11:16:55;;;;;;;2.70;2.10;;;15.80;63.10;;;;;;10405428;28;20057;-54
2023/04/28 11:21:58;;;;;;;3.97;2.53;;;15.80;63.30;;;;;;10410106;28;20030;-49
2023/04/28 11:26:59;;;;;;;4.13;2.25;;;15.70;63.50;;;;;;10403779;28;20032;-53
2023/04/28 11:32:02;;;;;;;3.08;2.15;;;15.70;63.50;;;;;;10406061;28;20017;-54
2023/04/28 11:37:04;;;;;;;4.28;2.15;;;15.70;64.20;;;;;;10404842;28;20589;-53
2023/04/28 11:42:09;;;;;;;4.25;2.60;;;15.70;63.70;;;;;;10403426;28;20053;-54
2023/04/28 11:47:10;;;;;;;3.65;2.47;;;15.70;64.00;;;;;;10383750;28;20496;-54
2023/04/28 11:52:11;;;;;;;2.95;2.20;;;15.80;63.70;;;;;;10403351;28;20105;-50
2023/04/28 11:57:20;;;;;;;4.95;2.70;;;15.80;63.70;;;;;;10403897;28;20097;-50
2023/04/28 12:02:29;;;;;;;3.77;2.40;;;15.80;63.80;;;;;;10403119;28;20022;-52
2023/04/28 12:07:43;;;;;;;4.97;2.80;;;15.80;63.80;;;;;;10402914;28;20373;-53
2023/04/28 12:12:46;;;;;;;3.40;1.95;;;15.80;63.70;;;;;;10404379;28;20021;-50
2023/04/28 12:17:47;;;;;;;5.15;3.05;;;15.80;63.70;;;;;;10403003;28;20025;-50
2023/04/28 12:22:50;;;;;;;3.42;1.95;;;15.80;63.80;;;;;;10404048;28;20483;-50
2023/04/28 12:28:01;;;;;;;3.70;2.05;;;15.80;63.80;;;;;;10403671;28;20037;-52
2023/04/28 12:33:01;;;;;;;3.85;2.47;;;15.80;64.00;;;;;;10403968;28;20021;-49
2023/04/28 12:38:02;;;;;;;3.55;2.17;;;15.80;64.00;;;;;;10402646;28;20116;-50
2023/04/28 12:43:03;;;;;;;2.53;2.05;;;15.80;64.10;;;;;;10403779;28;20049;-52
2023/04/28 12:48:03;;;;;;;3.40;2.78;;;15.70;64.30;;;;;;10403269;28;20116;-50
2023/04/28 12:53:05;;;;;;;3.15;2.35;;;15.70;64.40;;;;;;10403500;28;20013;-48
2023/04/28 12:58:05;;;;;;;2.92;2.05;;;15.80;64.20;;;;;;10410372;28;20422;-53
2023/04/28 13:03:06;;;;;;;3.38;1.95;;;15.90;64.10;;;;;;10386861;28;20056;-52
2023/04/28 13:08:08;;;;;;;2.80;2.38;;;15.90;64.20;;;;;;10410505;28;20032;-52
2023/04/28 13:13:08;;;;;;;3.35;2.15;;;15.90;64.20;;;;;;10391936;28;20108;-51
2023/04/28 13:18:09;;;;;;;2.65;1.98;;;15.80;64.20;;;;;;10408316;28;20022;-54
2023/04/28 13:23:10;;;;;;;2.30;1.70;;;15.80;64.30;;;;;;10409635;28;20025;-53
2023/04/28 13:28:12;;;;;;;4.13;1.98;;;15.80;64.60;;;;;;10401329;28;20117;-51
2023/04/28 13:33:12;;;;;;;2.92;1.98;;;15.90;64.50;;;;;;10408579;28;20479;-52
2023/04/28 13:38:13;;;;;;;2.75;2.03;;;15.90;64.40;;;;;;10409095;28;20108;-55
2023/04/28 13:43:14;;;;;;;2.90;1.90;;;15.90;64.30;;;;;;10409160;28;20606;-55
2023/04/28 13:48:15;;;;;;;6.18;4.55;;;15.90;64.50;;;;;;10408866;28;20179;-53
2023/04/28 13:53:16;;;;;;;3.15;1.85;;;15.80;64.60;;;;;;10408347;28;20025;-51
2023/04/28 13:58:17;;;;;;;3.00;2.28;;;15.80;64.90;;;;;;10407187;28;20444;-48
2023/04/28 14:03:20;;;;;;;2.70;1.92;;;15.80;64.80;;;;;;10407955;28;20096;-52
2023/04/28 14:08:22;;;;;;;3.25;2.00;;;15.80;65.00;;;;;;10406970;28;20029;-51
2023/04/28 14:13:23;;;;;;;3.22;1.88;;;15.80;65.00;;;;;;10407432;28;20457;-53
2023/04/28 14:18:24;;;;;;;3.35;1.95;;;15.80;65.20;;;;;;10407729;28;20017;-51
2023/04/28 14:23:25;;;;;;;2.88;1.70;;;15.70;65.20;;;;;;10407259;28;20072;-54
2023/04/28 14:28:26;;;;;;;2.95;2.00;;;15.70;65.40;;;;;;10393961;28;20038;-50
2023/04/28 14:33:27;;;;;;;3.25;2.72;;;15.70;65.60;;;;;;10405489;28;20049;-53
2023/04/28 14:38:29;;;;;;;2.35;1.88;;;15.70;65.60;;;;;;10405241;28;20512;-50
2023/04/28 14:43:30;;;;;;;3.03;2.10;;;15.70;65.80;;;;;;10405357;28;20037;-49
2023/04/28 14:48:31;;;;;;;2.50;1.83;;;15.80;65.70;;;;;;10405603;28;20080;-55
2023/04/28 14:53:32;;;;;;;3.28;2.30;;;15.80;65.40;;;;;;10406691;28;20472;-52
2023/04/28 14:58:33;;;;;;;2.40;1.88;;;15.80;65.60;;;;;;10406128;28;20031;-50
2023/04/28 15:03:33;;;;;;;6.78;2.13;;;15.80;65.60;;;;;;10406202;28;20064;-53
2023/04/28 15:08:34;;;;;;;2.30;1.70;;;15.80;65.60;;;;;;10420875;28;20045;-54
2023/04/28 15:13:35;;;;;;;1.77;1.40;;;15.70;65.60;;;;;;10405695;28;20021;-55
2023/04/28 15:18:36;;;;;;;3.53;2.10;;;15.70;65.80;;;;;;10405708;28;20030;-52
2023/04/28 15:23:37;;;;;;;2.83;1.83;;;15.70;66.00;;;;;;10405790;28;20108;-54
2023/04/28 15:28:38;;;;;;;2.22;1.67;;;15.70;65.70;;;;;;10404588;28;20083;-53
2023/04/28 15:33:38;;;;;;;1.95;1.67;;;15.80;65.80;;;;;;10404114;28;20043;-53
2023/04/28 15:38:41;;;;;;;2.42;1.70;;;15.90;65.70;;;;;;10404829;28;20049;-53
2023/04/28 15:43:43;;;;;;;2.28;1.80;;;15.90;65.50;;;;;;10404855;28;20080;-50
2023/04/28 15:48:43;;;;;;;3.00;1.95;;;15.90;65.60;;;;;;10403032;28;20042;-53
2023/04/28 15:53:44;;;;;;;2.63;1.60;;;15.90;66.30;;;;;;10403394;28;20049;-52
2023/04/28 15:58:46;;;;;;;1.50;1.40;;;15.80;65.60;;;;;;10403720;28;20061;-50
2023/04/28 16:03:46;;;;;;;2.88;1.70;;;15.80;65.80;;;;;;10402460;28;20037;-52
2023/04/28 16:08:47;;;;;;;3.15;1.95;;;15.80;65.80;;;;;;10401552;28;20041;-54
2023/04/28 16:13:48;;;;;;;2.55;1.50;;;15.70;66.00;;;;;;10402579;28;20064;-49
2023/04/28 16:18:49;;;;;;;7.68;2.60;;;15.70;66.20;;;;;;10401399;28;20453;-51
2023/04/28 16:23:51;;;;;;;3.42;2.15;;;15.80;66.30;;;;;;10400880;28;20144;-52
2023/04/28 16:28:52;;;;;;;3.70;2.05;;;16.00;65.40;;;;;;10401313;28;20108;-53
2023/04/28 16:33:52;;;;;;;4.68;2.15;;;16.00;65.30;;;;;;10406729;28;20044;-53
2023/04/28 16:38:53;;;;;;;6.00;2.58;;;16.10;65.30;;;;;;10406648;28;20025;-53
2023/04/28 16:43:54;;;;;;;3.70;1.60;;;16.00;65.40;;;;;;10405063;28;20116;-52
2023/04/28 16:48:54;;;;;;;2.50;1.80;;;16.00;65.40;;;;;;10408343;28;20427;-55
2023/04/28 16:53:55;;;;;;;3.58;2.25;;;15.90;65.60;;;;;;10409071;28;20393;-54
2023/04/28 16:58:55;;;;;;;2.38;1.80;;;15.90;65.70;;;;;;10408656;28;20033;-52
2023/04/28 17:03:56;;;;;;;4.20;2.45;;;15.90;65.70;;;;;;10408193;28;20611;-54
2023/04/28 17:08:58;;;;;;;3.08;2.00;;;15.80;65.80;;;;;;10408384;28;20056;-55
2023/04/28 17:13:59;;;;;;;2.85;2.08;;;15.80;66.00;;;;;;10407971;28;20040;-50
2023/04/28 17:19:01;;;;;;;3.13;1.90;;;15.80;65.90;;;;;;10406877;28;20128;-53
2023/04/28 17:24:01;;;;;;;2.55;1.73;;;15.80;66.00;;;;;;10403992;28;20021;-53
2023/04/28 17:29:03;;;;;;;2.40;1.73;;;15.70;66.00;;;;;;10413916;28;20029;-51
2023/04/28 17:34:04;;;;;;;2.72;1.95;;;15.70;66.20;;;;;;10406166;28;20067;-52
2023/04/28 17:39:05;;;;;;;3.78;1.90;;;15.70;66.10;;;;;;10406584;28;20100;-53
2023/04/28 17:44:05;;;;;;;2.25;1.67;;;15.70;66.20;;;;;;10406912;28;20288;-54
2023/04/28 17:49:06;;;;;;;3.05;1.55;;;15.80;66.10;;;;;;10406623;28;20557;-53
2023/04/28 17:54:08;;;;;;;2.33;1.42;;;15.70;66.00;;;;;;10405428;28;20108;-53
2023/04/28 17:59:09;;;;;;;2.97;2.05;;;15.80;66.00;;;;;;10406566;28;20025;-52
2023/04/28 18:04:10;;;;;;;3.17;1.90;;;15.90;66.00;;;;;;10406132;28;20073;-55
2023/04/28 18:09:10;;;;;;;3.38;1.92;;;15.90;65.90;;;;;;10406000;28;20037;-53
2023/04/28 18:14:11;;;;;;;3.05;1.88;;;15.90;66.00;;;;;;10406208;28;20100;-52
2023/04/28 18:19:12;;;;;;;2.88;1.70;;;15.90;66.00;;;;;;10405020;28;20029;-53
2023/04/28 18:24:13;;;;;;;3.05;2.15;;;15.80;66.00;;;;;;10398456;28;20102;-55
2023/04/28 18:29:14;;;;;;;6.82;2.63;;;15.80;66.10;;;;;;10398412;28;20358;-50
2023/04/28 18:34:14;;;;;;;2.63;1.60;;;15.80;66.20;;;;;;10394063;28;20021;-53
2023/04/28 18:39:16;;;;;;;8.45;2.00;;;15.70;66.20;;;;;;10400952;28;20017;-55
2023/04/28 18:44:17;;;;;;;8.80;1.90;;;15.70;67.60;;;;;;10405910;28;20018;-56
2023/04/28 18:49:18;;;;;;;2.92;1.70;;;16.00;67.70;;;;;;10406324;28;20025;-56
2023/04/28 18:54:19;;;;;;;6.75;1.90;;;16.10;67.30;;;;;;10406269;28;20017;-55
2023/04/28 18:59:19;;;;;;;4.70;1.77;;;16.20;67.50;;;;;;10406660;28;20100;-56
2023/04/28 19:04:21;;;;;;;12.32;3.03;;;16.20;67.60;;;;;;10404833;28;20076;-52
2023/04/28 19:09:22;;;;;;;5.85;1.67;;;16.20;67.70;;;;;;10405461;28;20040;-56
2023/04/28 19:14:22;;;;;;;4.22;2.38;;;16.10;67.70;;;;;;10404854;28;20471;-55
2023/04/28 19:19:23;;;;;;;4.57;2.17;;;16.10;68.00;;;;;;10405111;28;20056;-55
2023/04/28 19:24:24;;;;;;;5.05;2.00;;;16.10;67.90;;;;;;10399075;28;20124;-53
2023/04/28 19:29:24;;;;;;;6.38;1.77;;;16.10;68.20;;;;;;10401073;28;20084;-55
2023/04/28 19:34:25;;;;;;;5.85;2.33;;;16.10;67.90;;;;;;10397627;28;20440;-55
2023/04/28 19:39:26;;;;;;;4.80;2.40;;;16.00;67.90;;;;;;10399561;28;20063;-55
2023/04/28 19:44:27;;;;;;;3.17;2.15;;;15.90;68.00;;;;;;10399899;28;20017;-56
2023/04/28 19:49:28;;;;;;;5.25;2.13;;;15.80;68.20;;;;;;10403040;28;20061;-54
2023/04/28 19:54:28;;;;;;;4.28;2.70;;;15.80;68.20;;;;;;10400961;28;20064;-55
2023/04/28 19:59:29;;;;;;;4.57;3.35;;;15.80;68.20;;;;;;10389936;28;20022;-52
2023/04/28 20:04:30;;;;;;;5.85;2.42;;;15.70;68.20;;;;;;10405700;28;20037;-55
2023/04/28 20:09:37;;;;;;;5.15;2.55;;;15.70;68.20;;;;;;10414161;28;20043;-55
2023/04/28 20:14:38;;;;;;;4.82;2.90;;;15.70;68.20;;;;;;10408541;28;20020;-55
2023/04/28 20:19:39;;;;;;;7.85;2.97;;;15.70;68.20;;;;;;10412084;28;20465;-55
2023/04/28 20:24:40;;;;;;;4.55;2.55;;;15.70;68.10;;;;;;10402422;28;20081;-55
2023/04/28 20:29:41;;;;;;;6.93;2.92;;;15.70;68.10;;;;;;10407733;28;20038;-56
2023/04/28 20:34:43;;;;;;;4.95;3.20;;;15.60;68.10;;;;;;10411386;28;20013;-55
2023/04/28 20:39:43;;;;;;;6.03;3.67;;;15.60;68.10;;;;;;10411427;28;20521;-54
2023/04/28 20:44:45;;;;;;;5.28;3.38;;;15.60;68.10;;;;;;10411424;28;20095;-55
2023/04/28 20:49:46;;;;;;;5.32;4.47;;;15.60;68.10;;;;;;10411057;28;20034;-55
2023/04/28 20:54:46;;;;;;;4.25;3.10;;;15.50;68.10;;;;;;10411148;28;20033;-54
2023/04/28 20:59:47;;;;;;;5.63;2.83;;;15.50;68.10;;;;;;10410985;28;20368;-54
2023/04/28 21:04:48;;;;;;;6.60;3.00;;;15.50;68.10;;;;;;10409401;28;20445;-53
2023/04/28 21:09:49;;;;;;;5.63;3.33;;;15.50;68.10;;;;;;10410292;28;20098;-54
2023/04/28 21:14:50;;;;;;;5.25;3.17;;;15.50;68.10;;;;;;10410294;28;20017;-56
2023/04/28 21:19:52;;;;;;;4.43;2.47;;;15.50;68.10;;;;;;10410397;28;20574;-56
2023/04/28 21:24:53;;;;;;;5.65;3.38;;;15.50;68.20;;;;;;10397819;28;20018;-55
2023/04/28 21:29:54;;;;;;;4.63;2.95;;;15.40;68.10;;;;;;10407797;28;20029;-55
2023/04/28 21:34:55;;;;;;;6.95;3.80;;;15.40;68.10;;;;;;10410321;28;20096;-55
2023/04/28 21:39:56;;;;;;;6.55;4.15;;;15.40;68.10;;;;;;10408538;28;20057;-54
2023/04/28 21:44:57;;;;;;;6.28;4.18;;;15.40;68.10;;;;;;10409568;28;20416;-54
2023/04/28 21:49:58;;;;;;;6.35;3.80;;;15.40;68.10;;;;;;10409241;28;20029;-56
2023/04/28 21:54:59;;;;;;;6.90;4.53;;;15.40;68.10;;;;;;10408912;28;20046;-54
2023/04/28 21:59:59;;;;;;;4.68;3.22;;;15.40;68.10;;;;;;10408491;28;20180;-56
2023/04/28 22:05:00;;;;;;;6.32;4.20;;;15.30;68.00;;;;;;10408268;28;20104;-53
2023/04/28 22:10:01;;;;;;;5.68;3.78;;;15.30;68.00;;;;;;10408045;28;20036;-52
2023/04/28 22:15:01;;;;;;;6.03;4.28;;;15.40;68.10;;;;;;10390294;28;20096;-55
2023/04/28 22:20:02;;;;;;;6.68;3.65;;;15.30;68.00;;;;;;10408329;28;20071;-54
2023/04/28 22:25:04;;;;;;;5.95;4.72;;;15.30;68.00;;;;;;10392955;28;20161;-55
2023/04/28 22:30:07;;;;;;;6.43;4.65;;;15.30;68.00;;;;;;10406287;28;20036;-52
2023/04/28 22:35:08;;;;;;;7.55;4.00;;;15.30;67.90;;;;;;10407218;28;20515;-56
2023/04/28 22:40:10;;;;;;;6.50;3.95;;;15.30;67.90;;;;;;10422365;28;20538;-55
2023/04/28 22:45:11;;;;;;;4.47;3.08;;;15.30;67.80;;;;;;10406559;28;20052;-54
2023/04/28 22:50:11;;;;;;;6.18;3.75;;;15.30;67.80;;;;;;10406785;28;20086;-55
2023/04/28 22:55:13;;;;;;;6.55;3.35;;;15.30;67.80;;;;;;10405012;28;20040;-55
2023/04/28 23:00:14;;;;;;;5.85;3.58;;;15.20;67.70;;;;;;10406974;28;20759;-54
2023/04/28 23:05:16;;;;;;;7.13;3.70;;;15.20;67.70;;;;;;10404628;28;20037;-55
2023/04/28 23:10:17;;;;;;;6.53;3.65;;;15.20;67.70;;;;;;10404878;28;20072;-54
2023/04/28 23:15:18;;;;;;;5.75;3.83;;;15.20;67.60;;;;;;10405834;28;20076;-52
2023/04/28 23:20:19;;;;;;;6.00;4.32;;;15.20;67.60;;;;;;10405414;28;20595;-56
2023/04/28 23:25:20;;;;;;;5.55;3.67;;;15.20;67.50;;;;;;10392049;28;20566;-55
2023/04/28 23:30:20;;;;;;;6.50;4.30;;;15.20;67.50;;;;;;10405119;28;20068;-55
2023/04/28 23:35:21;;;;;;;6.22;3.60;;;15.20;67.50;;;;;;10403811;28;20447;-53
2023/04/28 23:40:22;;;;;;;5.22;3.80;;;15.20;67.50;;;;;;10403223;28;20053;-52
2023/04/28 23:45:22;;;;;;;5.55;3.50;;;15.20;67.50;;;;;;10405070;28;20117;-53
2023/04/28 23:50:23;;;;;;;5.40;4.15;;;15.20;67.50;;;;;;10404944;28;20034;-54
2023/04/28 23:55:24;;;;;;;6.40;4.05;;;15.20;67.50;;;;;;10404719;28;20662;-54
